sensor_id;sensor_type;location;lat;lon;timestamp;pressure;altitude;pressure_sealevel;temperature;humidity
8101;BME280;4093;53.470;9.832;2022-09-24T00:02:23;101227.75;;;16.70;76.96
8101;BME280;4093;53.470;9.832;2022-09-24T00:04:50;101234.72;;;16.45;78.11
8101;BME280;4093;53.470;9.832;2022-09-24T00:07:16;101234.22;;;16.85;76.69
8101;BME280;4093;53.470;9.832;2022-09-24T00:09:43;101193.59;;;16.76;74.96
8101;BME280;4093;53.470;9.832;2022-09-24T00:12:09;101227.97;;;16.89;76.33
8101;BME280;4093;53.470;9.832;2022-09-24T00:14:37;101231.91;;;17.01;75.78
8101;BME280;4093;53.470;9.832;2022-09-24T00:17:04;101229.28;;;17.01;74.87
8101;BME280;4093;53.470;9.832;2022-09-24T00:19:32;101230.78;;;17.08;74.31
8101;BME280;4093;53.470;9.832;2022-09-24T00:21:58;101234.69;;;17.20;74.26
8101;BME280;4093;53.470;9.832;2022-09-24T00:24:25;101230.31;;;17.20;74.62
8101;BME280;4093;53.470;9.832;2022-09-24T00:27:09;101224.47;;;17.14;75.01
8101;BME280;4093;53.470;9.832;2022-09-24T00:29:35;101229.19;;;17.27;74.14
8101;BME280;4093;53.470;9.832;2022-09-24T00:32:04;101218.75;;;17.27;74.02
8101;BME280;4093;53.470;9.832;2022-09-24T00:34:32;101215.91;;;17.33;73.66
8101;BME280;4093;53.470;9.832;2022-09-24T00:36:59;101179.09;;;16.93;74.21
8101;BME280;4093;53.470;9.832;2022-09-24T00:39:26;101211.00;;;17.24;74.21
8101;BME280;4093;53.470;9.832;2022-09-24T00:41:52;101207.66;;;17.21;74.18
8101;BME280;4093;53.470;9.832;2022-09-24T00:44:49;101209.28;;;17.23;73.85
8101;BME280;4093;53.470;9.832;2022-09-24T00:47:23;101201.47;;;17.00;74.49
8101;BME280;4093;53.470;9.832;2022-09-24T00:49:59;101138.13;;;16.45;75.75
8101;BME280;4093;53.470;9.832;2022-09-24T00:52:28;101199.19;;;16.91;75.48
8101;BME280;4093;53.470;9.832;2022-09-24T00:54:54;101203.56;;;17.14;74.46
8101;BME280;4093;53.470;9.832;2022-09-24T00:57:21;101196.22;;;17.23;74.13
8101;BME280;4093;53.470;9.832;2022-09-24T00:59:48;101194.66;;;17.19;74.37
8101;BME280;4093;53.470;9.832;2022-09-24T01:02:15;101197.59;;;17.33;74.17
8101;BME280;4093;53.470;9.832;2022-09-24T01:04:42;101195.75;;;17.35;73.72
8101;BME280;4093;53.470;9.832;2022-09-24T01:07:10;101192.44;;;17.08;75.11
8101;BME280;4093;53.470;9.832;2022-09-24T01:09:37;101192.94;;;17.18;74.35
8101;BME280;4093;53.470;9.832;2022-09-24T01:12:11;101194.94;;;17.11;74.42
8101;BME280;4093;53.470;9.832;2022-09-24T01:14:51;101189.84;;;17.08;74.81
8101;BME280;4093;53.470;9.832;2022-09-24T01:17:28;101187.03;;;17.13;74.02
8101;BME280;4093;53.470;9.832;2022-09-24T01:23:11;101190.84;;;16.81;76.36
8101;BME280;4093;53.470;9.832;2022-09-24T01:25:52;101126.88;;;16.68;75.56
8101;BME280;4093;53.470;9.832;2022-09-24T01:28:33;101189.09;;;17.05;74.75
8101;BME280;4093;53.470;9.832;2022-09-24T01:31:09;101185.00;;;16.73;75.77
8101;BME280;4093;53.470;9.832;2022-09-24T01:33:41;101182.59;;;16.66;77.00
8101;BME280;4093;53.470;9.832;2022-09-24T01:36:10;101180.84;;;16.67;76.37
8101;BME280;4093;53.470;9.832;2022-09-24T01:38:39;101183.44;;;16.92;76.59
8101;BME280;4093;53.470;9.832;2022-09-24T01:41:10;101185.16;;;16.93;75.56
8101;BME280;4093;53.470;9.832;2022-09-24T01:43:38;101179.59;;;16.79;75.94
8101;BME280;4093;53.470;9.832;2022-09-24T01:46:06;101180.94;;;16.89;76.12
8101;BME280;4093;53.470;9.832;2022-09-24T01:48:35;101125.94;;;16.45;76.20
8101;BME280;4093;53.470;9.832;2022-09-24T01:51:07;101151.81;;;16.51;75.61
8101;BME280;4093;53.470;9.832;2022-09-24T01:53:40;101161.31;;;16.29;78.21
8101;BME280;4093;53.470;9.832;2022-09-24T01:56:12;101175.53;;;16.45;78.14
8101;BME280;4093;53.470;9.832;2022-09-24T01:58:45;101174.63;;;16.71;76.78
8101;BME280;4093;53.470;9.832;2022-09-24T02:01:18;101170.47;;;16.65;76.48
8101;BME280;4093;53.470;9.832;2022-09-24T02:03:50;101162.56;;;16.67;76.68
8101;BME280;4093;53.470;9.832;2022-09-24T02:06:24;101168.38;;;16.77;76.28
8101;BME280;4093;53.470;9.832;2022-09-24T02:08:51;101172.84;;;16.72;75.95
8101;BME280;4093;53.470;9.832;2022-09-24T02:11:19;101173.81;;;16.69;77.22
8101;BME280;4093;53.470;9.832;2022-09-24T02:13:49;101174.25;;;16.82;76.68
8101;BME280;4093;53.470;9.832;2022-09-24T02:16:23;101167.34;;;16.81;76.52
8101;BME280;4093;53.470;9.832;2022-09-24T02:18:53;101169.66;;;16.88;75.87
8101;BME280;4093;53.470;9.832;2022-09-24T02:21:23;101152.09;;;16.43;77.48
8101;BME280;4093;53.470;9.832;2022-09-24T02:23:51;101153.44;;;16.55;77.54
8101;BME280;4093;53.470;9.832;2022-09-24T02:26:19;101152.03;;;16.20;78.86
8101;BME280;4093;53.470;9.832;2022-09-24T02:28:46;101158.69;;;16.29;79.17
8101;BME280;4093;53.470;9.832;2022-09-24T02:31:15;101162.56;;;16.42;79.31
8101;BME280;4093;53.470;9.832;2022-09-24T02:33:48;101161.31;;;16.54;78.28
8101;BME280;4093;53.470;9.832;2022-09-24T02:36:33;101164.06;;;16.74;77.54
8101;BME280;4093;53.470;9.832;2022-09-24T02:39:00;101165.16;;;16.67;76.87
8101;BME280;4093;53.470;9.832;2022-09-24T02:41:28;101149.81;;;16.34;77.86
8101;BME280;4093;53.470;9.832;2022-09-24T02:43:56;101155.19;;;16.55;77.76
8101;BME280;4093;53.470;9.832;2022-09-24T02:46:23;101159.44;;;16.57;76.98
8101;BME280;4093;53.470;9.832;2022-09-24T02:48:51;101156.38;;;16.70;76.99
8101;BME280;4093;53.470;9.832;2022-09-24T02:51:17;101146.88;;;16.67;77.49
8101;BME280;4093;53.470;9.832;2022-09-24T02:53:44;101144.69;;;16.56;77.99
8101;BME280;4093;53.470;9.832;2022-09-24T02:56:11;101148.31;;;16.77;77.96
8101;BME280;4093;53.470;9.832;2022-09-24T02:58:38;101149.88;;;16.58;78.15
8101;BME280;4093;53.470;9.832;2022-09-24T03:01:05;101147.69;;;16.46;79.70
8101;BME280;4093;53.470;9.832;2022-09-24T03:03:32;101143.53;;;16.15;81.24
8101;BME280;4093;53.470;9.832;2022-09-24T03:05:59;101148.69;;;16.41;80.97
8101;BME280;4093;53.470;9.832;2022-09-24T03:08:26;101151.47;;;16.12;82.55
8101;BME280;4093;53.470;9.832;2022-09-24T03:10:54;101149.75;;;16.11;83.17
8101;BME280;4093;53.470;9.832;2022-09-24T03:13:21;101164.09;;;16.49;81.41
8101;BME280;4093;53.470;9.832;2022-09-24T03:15:48;101157.69;;;16.58;81.35
8101;BME280;4093;53.470;9.832;2022-09-24T03:18:15;101154.63;;;16.20;82.93
8101;BME280;4093;53.470;9.832;2022-09-24T03:20:41;101166.75;;;16.48;82.85
8101;BME280;4093;53.470;9.832;2022-09-24T03:23:09;101151.34;;;15.88;84.91
8101;BME280;4093;53.470;9.832;2022-09-24T03:25:36;101158.44;;;15.28;88.61
8101;BME280;4093;53.470;9.832;2022-09-24T03:28:02;101167.09;;;15.85;86.52
8101;BME280;4093;53.470;9.832;2022-09-24T03:30:29;101176.56;;;15.89;86.95
8101;BME280;4093;53.470;9.832;2022-09-24T03:33:13;101176.25;;;15.99;85.91
8101;BME280;4093;53.470;9.832;2022-09-24T03:35:40;101175.59;;;16.18;85.68
8101;BME280;4093;53.470;9.832;2022-09-24T03:38:06;101161.03;;;16.11;84.95
8101;BME280;4093;53.470;9.832;2022-09-24T03:40:34;101170.59;;;16.37;83.91
8101;BME280;4093;53.470;9.832;2022-09-24T03:43:01;101167.38;;;16.29;84.64
8101;BME280;4093;53.470;9.832;2022-09-24T03:45:28;101158.69;;;16.29;84.49
8101;BME280;4093;53.470;9.832;2022-09-24T03:47:54;101158.66;;;16.30;83.81
8101;BME280;4093;53.470;9.832;2022-09-24T03:50:21;101154.19;;;16.34;84.30
8101;BME280;4093;53.470;9.832;2022-09-24T03:52:47;101151.50;;;16.35;83.73
8101;BME280;4093;53.470;9.832;2022-09-24T03:55:14;101164.72;;;16.56;83.69
8101;BME280;4093;53.470;9.832;2022-09-24T03:57:42;101147.72;;;16.19;84.80
8101;BME280;4093;53.470;9.832;2022-09-24T04:00:10;101149.78;;;16.36;83.76
8101;BME280;4093;53.470;9.832;2022-09-24T04:02:37;101148.03;;;16.35;84.25
8101;BME280;4093;53.470;9.832;2022-09-24T04:05:05;101108.22;;;16.05;84.01
8101;BME280;4093;53.470;9.832;2022-09-24T04:07:32;101138.78;;;16.26;85.65
8101;BME280;4093;53.470;9.832;2022-09-24T04:09:59;101150.94;;;16.27;85.49
8101;BME280;4093;53.470;9.832;2022-09-24T04:12:25;101137.13;;;15.99;87.09
8101;BME280;4093;53.470;9.832;2022-09-24T04:14:55;101143.50;;;15.62;87.97
8101;BME280;4093;53.470;9.832;2022-09-24T04:17:21;101140.56;;;15.44;89.42
8101;BME280;4093;53.470;9.832;2022-09-24T04:19:48;101151.84;;;15.73;88.67
8101;BME280;4093;53.470;9.832;2022-09-24T04:22:18;101148.44;;;15.43;90.80
8101;BME280;4093;53.470;9.832;2022-09-24T04:24:44;101145.88;;;15.41;90.21
8101;BME280;4093;53.470;9.832;2022-09-24T04:27:11;101152.25;;;15.61;89.71
8101;BME280;4093;53.470;9.832;2022-09-24T04:29:38;101150.38;;;15.64;90.42
8101;BME280;4093;53.470;9.832;2022-09-24T04:32:06;101146.59;;;15.75;89.22
8101;BME280;4093;53.470;9.832;2022-09-24T04:34:32;101143.09;;;15.76;89.72
8101;BME280;4093;53.470;9.832;2022-09-24T04:36:59;101139.69;;;15.73;89.14
8101;BME280;4093;53.470;9.832;2022-09-24T04:39:26;101135.59;;;15.37;91.26
8101;BME280;4093;53.470;9.832;2022-09-24T04:41:53;101127.06;;;15.32;91.25
8101;BME280;4093;53.470;9.832;2022-09-24T04:44:19;101146.53;;;15.76;89.96
8101;BME280;4093;53.470;9.832;2022-09-24T04:46:46;101140.44;;;15.77;89.92
8101;BME280;4093;53.470;9.832;2022-09-24T04:49:15;101138.63;;;15.79;88.65
8101;BME280;4093;53.470;9.832;2022-09-24T04:51:41;101133.66;;;15.71;88.31
8101;BME280;4093;53.470;9.832;2022-09-24T04:54:08;101114.88;;;15.60;88.68
8101;BME280;4093;53.470;9.832;2022-09-24T04:56:35;101149.09;;;16.04;88.79
8101;BME280;4093;53.470;9.832;2022-09-24T04:59:01;101140.63;;;15.98;87.87
8101;BME280;4093;53.470;9.832;2022-09-24T05:01:28;101133.19;;;15.85;87.75
8101;BME280;4093;53.470;9.832;2022-09-24T05:03:55;101123.69;;;15.30;90.83
8101;BME280;4093;53.470;9.832;2022-09-24T05:06:22;101121.16;;;14.98;93.05
8101;BME280;4093;53.470;9.832;2022-09-24T05:08:49;101148.53;;;15.40;92.04
8101;BME280;4093;53.470;9.832;2022-09-24T05:11:16;101156.09;;;15.77;90.71
8101;BME280;4093;53.470;9.832;2022-09-24T05:13:43;101141.03;;;15.85;89.74
8101;BME280;4093;53.470;9.832;2022-09-24T05:16:10;101130.31;;;15.68;88.84
8101;BME280;4093;53.470;9.832;2022-09-24T05:18:36;101144.19;;;15.95;89.14
8101;BME280;4093;53.470;9.832;2022-09-24T05:21:03;101147.63;;;16.22;87.47
8101;BME280;4093;53.470;9.832;2022-09-24T05:23:31;101143.84;;;16.31;87.45
8101;BME280;4093;53.470;9.832;2022-09-24T05:25:58;101090.63;;;16.10;86.41
8101;BME280;4093;53.470;9.832;2022-09-24T05:28:42;101126.50;;;16.30;86.97
8101;BME280;4093;53.470;9.832;2022-09-24T05:31:08;101135.69;;;16.40;86.57
8101;BME280;4093;53.470;9.832;2022-09-24T05:33:35;101133.19;;;16.37;86.43
8101;BME280;4093;53.470;9.832;2022-09-24T05:36:02;101129.34;;;16.22;86.12
8101;BME280;4093;53.470;9.832;2022-09-24T05:38:30;101122.75;;;16.12;87.77
8101;BME280;4093;53.470;9.832;2022-09-24T05:40:58;101138.09;;;16.21;86.96
8101;BME280;4093;53.470;9.832;2022-09-24T05:43:24;101100.28;;;16.08;87.44
8101;BME280;4093;53.470;9.832;2022-09-24T05:45:55;101126.28;;;16.11;88.20
8101;BME280;4093;53.470;9.832;2022-09-24T05:48:23;101114.19;;;15.82;89.46
8101;BME280;4093;53.470;9.832;2022-09-24T05:50:50;101128.97;;;15.83;89.57
8101;BME280;4093;53.470;9.832;2022-09-24T05:53:20;101146.03;;;16.18;88.48
8101;BME280;4093;53.470;9.832;2022-09-24T05:55:48;101154.81;;;16.15;88.87
8101;BME280;4093;53.470;9.832;2022-09-24T05:58:15;101149.28;;;16.25;88.94
8101;BME280;4093;53.470;9.832;2022-09-24T06:00:42;101136.09;;;15.76;89.90
8101;BME280;4093;53.470;9.832;2022-09-24T06:03:11;101125.00;;;15.71;90.61
8101;BME280;4093;53.470;9.832;2022-09-24T06:05:42;101144.25;;;15.67;91.16
8101;BME280;4093;53.470;9.832;2022-09-24T06:08:10;101154.13;;;15.84;90.92
8101;BME280;4093;53.470;9.832;2022-09-24T06:10:39;101150.31;;;15.66;91.44
8101;BME280;4093;53.470;9.832;2022-09-24T06:13:07;101156.22;;;15.99;90.70
8101;BME280;4093;53.470;9.832;2022-09-24T06:15:36;101150.75;;;16.07;89.27
8101;BME280;4093;53.470;9.832;2022-09-24T06:18:03;101151.06;;;15.71;91.73
8101;BME280;4093;53.470;9.832;2022-09-24T06:20:29;101143.69;;;15.56;90.90
8101;BME280;4093;53.470;9.832;2022-09-24T06:22:57;101153.56;;;15.74;91.24
8101;BME280;4093;53.470;9.832;2022-09-24T06:25:24;101152.22;;;15.89;90.13
8101;BME280;4093;53.470;9.832;2022-09-24T06:27:53;101138.50;;;15.27;93.43
8101;BME280;4093;53.470;9.832;2022-09-24T06:30:26;101144.53;;;15.58;92.25
8101;BME280;4093;53.470;9.832;2022-09-24T06:32:53;101148.06;;;15.55;92.33
8101;BME280;4093;53.470;9.832;2022-09-24T06:35:20;101154.69;;;15.65;91.67
8101;BME280;4093;53.470;9.832;2022-09-24T06:37:46;101159.00;;;15.66;92.64
8101;BME280;4093;53.470;9.832;2022-09-24T06:40:14;101150.50;;;15.60;91.96
8101;BME280;4093;53.470;9.832;2022-09-24T06:42:40;101154.84;;;15.33;93.57
8101;BME280;4093;53.470;9.832;2022-09-24T06:45:08;101164.47;;;15.59;92.35
8101;BME280;4093;53.470;9.832;2022-09-24T06:47:36;101158.53;;;15.54;93.75
8101;BME280;4093;53.470;9.832;2022-09-24T06:50:04;101147.31;;;15.23;94.67
8101;BME280;4093;53.470;9.832;2022-09-24T06:52:31;101158.72;;;15.76;92.91
8101;BME280;4093;53.470;9.832;2022-09-24T06:54:58;101154.53;;;15.71;92.50
8101;BME280;4093;53.470;9.832;2022-09-24T06:57:24;101158.94;;;15.69;92.45
8101;BME280;4093;53.470;9.832;2022-09-24T06:59:51;101160.00;;;15.34;94.35
8101;BME280;4093;53.470;9.832;2022-09-24T07:02:17;101169.56;;;15.62;92.47
8101;BME280;4093;53.470;9.832;2022-09-24T07:04:45;101169.03;;;15.80;91.88
8101;BME280;4093;53.470;9.832;2022-09-24T07:07:12;101178.97;;;15.95;92.21
8101;BME280;4093;53.470;9.832;2022-09-24T07:09:58;101133.19;;;15.85;91.10
8101;BME280;4093;53.470;9.832;2022-09-24T07:12:25;101164.09;;;15.98;90.38
8101;BME280;4093;53.470;9.832;2022-09-24T07:14:52;101173.16;;;16.14;90.96
8101;BME280;4093;53.470;9.832;2022-09-24T07:17:19;101164.63;;;16.07;91.63
8101;BME280;4093;53.470;9.832;2022-09-24T07:19:47;101174.34;;;16.29;90.64
8101;BME280;4093;53.470;9.832;2022-09-24T07:22:13;101178.19;;;16.43;89.42
8101;BME280;4093;53.470;9.832;2022-09-24T07:24:40;101166.69;;;16.24;89.56
8101;BME280;4093;53.470;9.832;2022-09-24T07:27:07;101173.50;;;16.28;89.44
8101;BME280;4093;53.470;9.832;2022-09-24T07:29:34;101163.59;;;16.13;90.09
8101;BME280;4093;53.470;9.832;2022-09-24T07:32:01;101168.50;;;16.22;90.74
8101;BME280;4093;53.470;9.832;2022-09-24T07:34:28;101174.22;;;16.33;90.37
8101;BME280;4093;53.470;9.832;2022-09-24T07:36:57;101172.50;;;15.79;92.19
8101;BME280;4093;53.470;9.832;2022-09-24T07:39:24;101169.41;;;15.68;93.16
8101;BME280;4093;53.470;9.832;2022-09-24T07:41:52;101186.56;;;15.75;93.78
8101;BME280;4093;53.470;9.832;2022-09-24T07:44:18;101190.81;;;16.31;91.68
8101;BME280;4093;53.470;9.832;2022-09-24T07:46:46;101178.06;;;15.96;92.56
8101;BME280;4093;53.470;9.832;2022-09-24T07:49:13;101164.88;;;15.73;93.13
8101;BME280;4093;53.470;9.832;2022-09-24T07:51:39;101187.75;;;15.93;92.71
8101;BME280;4093;53.470;9.832;2022-09-24T07:54:07;101190.44;;;16.41;89.78
8101;BME280;4093;53.470;9.832;2022-09-24T07:56:34;101198.06;;;16.48;89.09
8101;BME280;4093;53.470;9.832;2022-09-24T07:59:01;101197.81;;;16.55;89.22
8101;BME280;4093;53.470;9.832;2022-09-24T08:01:30;101190.81;;;16.31;90.17
8101;BME280;4093;53.470;9.832;2022-09-24T08:03:56;101199.56;;;16.55;89.67
8101;BME280;4093;53.470;9.832;2022-09-24T08:06:24;101196.53;;;16.17;91.44
8101;BME280;4093;53.470;9.832;2022-09-24T08:08:51;101196.56;;;16.40;90.53
8101;BME280;4093;53.470;9.832;2022-09-24T08:11:19;101193.38;;;16.32;91.15
8101;BME280;4093;53.470;9.832;2022-09-24T08:13:46;101167.31;;;15.79;91.36
8101;BME280;4093;53.470;9.832;2022-09-24T08:16:13;101193.75;;;15.95;91.50
8101;BME280;4093;53.470;9.832;2022-09-24T08:18:41;101191.88;;;15.72;93.69
8101;BME280;4093;53.470;9.832;2022-09-24T08:21:09;101209.81;;;16.09;92.81
8101;BME280;4093;53.470;9.832;2022-09-24T08:23:38;101195.31;;;15.74;93.62
8101;BME280;4093;53.470;9.832;2022-09-24T08:26:05;101207.38;;;16.05;93.05
8101;BME280;4093;53.470;9.832;2022-09-24T08:28:33;101211.41;;;16.13;92.85
8101;BME280;4093;53.470;9.832;2022-09-24T08:31:01;101209.25;;;16.00;93.05
8101;BME280;4093;53.470;9.832;2022-09-24T08:33:29;101193.56;;;15.73;94.48
8101;BME280;4093;53.470;9.832;2022-09-24T08:35:58;101199.28;;;15.56;95.13
8101;BME280;4093;53.470;9.832;2022-09-24T08:38:25;101173.34;;;15.81;93.46
8101;BME280;4093;53.470;9.832;2022-09-24T08:40:55;101222.25;;;16.28;92.97
8101;BME280;4093;53.470;9.832;2022-09-24T08:43:39;101203.56;;;16.13;92.08
8101;BME280;4093;53.470;9.832;2022-09-24T08:46:14;101204.59;;;15.83;94.37
8101;BME280;4093;53.470;9.832;2022-09-24T08:49:00;101210.94;;;16.01;93.78
8101;BME280;4093;53.470;9.832;2022-09-24T08:51:34;101216.00;;;16.32;93.23
8101;BME280;4093;53.470;9.832;2022-09-24T08:54:05;101219.75;;;16.25;94.07
8101;BME280;4093;53.470;9.832;2022-09-24T08:56:36;101222.22;;;16.79;91.34
8101;BME280;4093;53.470;9.832;2022-09-24T08:59:11;101224.69;;;16.84;90.83
8101;BME280;4093;53.470;9.832;2022-09-24T09:01:45;101196.69;;;16.62;91.20
8101;BME280;4093;53.470;9.832;2022-09-24T09:04:23;101225.13;;;16.95;91.13
8101;BME280;4093;53.470;9.832;2022-09-24T09:07:03;101221.13;;;17.33;88.40
8101;BME280;4093;53.470;9.832;2022-09-24T09:09:41;101215.59;;;16.94;90.18
8101;BME280;4093;53.470;9.832;2022-09-24T09:12:12;101222.91;;;17.33;89.21
8101;BME280;4093;53.470;9.832;2022-09-24T09:14:45;101173.50;;;17.25;88.02
8101;BME280;4093;53.470;9.832;2022-09-24T09:17:31;101201.03;;;17.12;88.70
8101;BME280;4093;53.470;9.832;2022-09-24T09:20:03;101218.91;;;17.23;89.93
8101;BME280;4093;53.470;9.832;2022-09-24T09:22:34;101219.09;;;17.18;89.91
8101;BME280;4093;53.470;9.832;2022-09-24T09:25:12;101213.63;;;17.24;90.36
8101;BME280;4093;53.470;9.832;2022-09-24T09:27:41;101222.34;;;17.47;89.15
8101;BME280;4093;53.470;9.832;2022-09-24T09:30:15;101210.56;;;16.90;91.41
8101;BME280;4093;53.470;9.832;2022-09-24T09:32:54;101217.47;;;17.38;90.19
8101;BME280;4093;53.470;9.832;2022-09-24T09:35:29;101219.44;;;17.54;88.89
8101;BME280;4093;53.470;9.832;2022-09-24T09:38:03;101201.56;;;17.44;88.79
8101;BME280;4093;53.470;9.832;2022-09-24T09:40:35;101211.47;;;17.12;89.87
8101;BME280;4093;53.470;9.832;2022-09-24T09:43:08;101204.59;;;16.86;91.07
8101;BME280;4093;53.470;9.832;2022-09-24T09:45:42;101219.75;;;17.47;89.15
8101;BME280;4093;53.470;9.832;2022-09-24T09:48:12;101199.88;;;16.71;90.57
8101;BME280;4093;53.470;9.832;2022-09-24T09:50:44;101203.19;;;16.76;92.04
8101;BME280;4093;53.470;9.832;2022-09-24T09:53:19;101217.66;;;17.09;90.51
8101;BME280;4093;53.470;9.832;2022-09-24T09:55:51;101217.47;;;17.38;89.47
8101;BME280;4093;53.470;9.832;2022-09-24T09:58:21;101207.31;;;17.30;89.88
8101;BME280;4093;53.470;9.832;2022-09-24T10:00:50;101219.94;;;17.19;91.04
8101;BME280;4093;53.470;9.832;2022-09-24T10:03:23;101182.72;;;16.63;90.80
8101;BME280;4093;53.470;9.832;2022-09-24T10:05:54;101210.44;;;16.42;93.36
8101;BME280;4093;53.470;9.832;2022-09-24T10:08:22;101217.91;;;16.78;92.40
8101;BME280;4093;53.470;9.832;2022-09-24T10:10:53;101225.78;;;17.02;90.83
8101;BME280;4093;53.470;9.832;2022-09-24T10:13:20;101209.00;;;16.84;91.58
8101;BME280;4093;53.470;9.832;2022-09-24T10:15:50;101224.56;;;16.87;91.56
8101;BME280;4093;53.470;9.832;2022-09-24T10:18:26;101210.53;;;16.39;93.00
8101;BME280;4093;53.470;9.832;2022-09-24T10:20:55;101219.13;;;16.68;92.11
8101;BME280;4093;53.470;9.832;2022-09-24T10:23:27;101216.94;;;16.56;92.28
8101;BME280;4093;53.470;9.832;2022-09-24T10:25:59;101209.03;;;16.32;94.03
8101;BME280;4093;53.470;9.832;2022-09-24T10:28:26;101223.13;;;16.53;94.51
8101;BME280;4093;53.470;9.832;2022-09-24T10:31:16;101227.28;;;16.59;93.54
8101;BME280;4093;53.470;9.832;2022-09-24T10:33:46;101227.28;;;16.59;92.24
8101;BME280;4093;53.470;9.832;2022-09-24T10:36:18;101229.06;;;16.83;92.62
8101;BME280;4093;53.470;9.832;2022-09-24T10:38:46;101229.06;;;17.07;91.47
8101;BME280;4093;53.470;9.832;2022-09-24T10:41:23;101216.28;;;16.74;92.03
8101;BME280;4093;53.470;9.832;2022-09-24T10:43:52;101215.44;;;16.74;92.53
8101;BME280;4093;53.470;9.832;2022-09-24T10:46:37;101217.38;;;16.69;92.68
8101;BME280;4093;53.470;9.832;2022-09-24T10:49:14;101217.47;;;16.91;91.32
8101;BME280;4093;53.470;9.832;2022-09-24T10:51:52;101229.44;;;17.21;90.63
8101;BME280;4093;53.470;9.832;2022-09-24T10:54:35;101208.34;;;17.02;90.03
8101;BME280;4093;53.470;9.832;2022-09-24T10:57:14;101222.69;;;16.91;91.28
8101;BME280;4093;53.470;9.832;2022-09-24T10:59:55;101205.16;;;16.69;92.22
8101;BME280;4093;53.470;9.832;2022-09-24T11:02:35;101217.06;;;16.78;92.89
8101;BME280;4093;53.470;9.832;2022-09-24T11:05:10;101198.81;;;16.51;91.86
8101;BME280;4093;53.470;9.832;2022-09-24T11:07:51;101228.41;;;17.02;91.53
8101;BME280;4093;53.470;9.832;2022-09-24T11:10:30;101184.06;;;16.75;91.34
8101;BME280;4093;53.470;9.832;2022-09-24T11:13:09;101209.53;;;16.94;90.13
8101;BME280;4093;53.470;9.832;2022-09-24T11:15:50;101219.91;;;17.64;89.45
8101;BME280;4093;53.470;9.832;2022-09-24T11:18:35;101203.50;;;16.92;91.93
8101;BME280;4093;53.470;9.832;2022-09-24T11:21:15;101222.59;;;17.41;91.49
8101;BME280;4093;53.470;9.832;2022-09-24T11:24:19;101204.94;;;17.24;90.42
8101;BME280;4093;53.470;9.832;2022-09-24T11:26:57;101216.13;;;17.27;90.33
8101;BME280;4093;53.470;9.832;2022-09-24T11:29:47;101210.66;;;17.33;90.30
8101;BME280;4093;53.470;9.832;2022-09-24T11:32:22;101212.88;;;17.66;88.62
8101;BME280;4093;53.470;9.832;2022-09-24T11:35:02;101206.72;;;17.67;88.65
8101;BME280;4093;53.470;9.832;2022-09-24T11:37:49;101183.59;;;17.34;88.80
8101;BME280;4093;53.470;9.832;2022-09-24T11:40:31;101174.66;;;16.70;92.28
8101;BME280;4093;53.470;9.832;2022-09-24T11:43:16;101209.94;;;17.30;91.22
8101;BME280;4093;53.470;9.832;2022-09-24T11:45:57;101197.03;;;17.25;91.05
8101;BME280;4093;53.470;9.832;2022-09-24T11:51:38;101211.09;;;17.45;90.66
8101;BME280;4093;53.470;9.832;2022-09-24T11:54:17;101206.88;;;17.19;92.28
8101;BME280;4093;53.470;9.832;2022-09-24T11:56:50;101211.78;;;17.50;91.47
8101;BME280;4093;53.470;9.832;2022-09-24T11:59:30;101199.53;;;17.28;92.43
8101;BME280;4093;53.470;9.832;2022-09-24T12:02:02;101205.97;;;17.42;91.16
8101;BME280;4093;53.470;9.832;2022-09-24T12:04:41;101208.94;;;17.32;91.82
8101;BME280;4093;53.470;9.832;2022-09-24T12:07:16;101219.03;;;18.09;90.38
8101;BME280;4093;53.470;9.832;2022-09-24T12:09:46;101208.13;;;18.20;89.14
8101;BME280;4093;53.470;9.832;2022-09-24T12:12:17;101203.84;;;17.97;90.39
8101;BME280;4093;53.470;9.832;2022-09-24T12:14:50;101199.06;;;18.07;90.38
8101;BME280;4093;53.470;9.832;2022-09-24T12:17:22;101183.69;;;17.99;90.21
8101;BME280;4093;53.470;9.832;2022-09-24T12:19:55;101204.91;;;18.13;89.43
8101;BME280;4093;53.470;9.832;2022-09-24T12:22:27;101196.94;;;17.72;91.08
8101;BME280;4093;53.470;9.832;2022-09-24T12:24:57;101178.03;;;17.20;91.61
8101;BME280;4093;53.470;9.832;2022-09-24T12:27:32;101177.72;;;17.95;90.00
8101;BME280;4093;53.470;9.832;2022-09-24T12:30:04;101197.06;;;18.13;88.27
8101;BME280;4093;53.470;9.832;2022-09-24T12:32:55;101201.22;;;17.97;90.15
8101;BME280;4093;53.470;9.832;2022-09-24T12:35:41;101190.69;;;17.98;88.61
8101;BME280;4093;53.470;9.832;2022-09-24T12:38:15;101199.69;;;18.34;88.77
8101;BME280;4093;53.470;9.832;2022-09-24T12:41:00;101156.13;;;17.68;90.38
8101;BME280;4093;53.470;9.832;2022-09-24T12:43:38;101192.81;;;17.89;90.21
8101;BME280;4093;53.470;9.832;2022-09-24T12:46:14;101196.09;;;17.94;91.43
8101;BME280;4093;53.470;9.832;2022-09-24T12:48:43;101180.03;;;18.23;88.11
8101;BME280;4093;53.470;9.832;2022-09-24T12:51:10;101182.00;;;18.39;88.22
8101;BME280;4093;53.470;9.832;2022-09-24T12:53:41;101181.34;;;18.13;89.95
8101;BME280;4093;53.470;9.832;2022-09-24T12:56:12;101184.69;;;18.58;87.95
8101;BME280;4093;53.470;9.832;2022-09-24T12:58:49;101181.41;;;18.73;87.06
8101;BME280;4093;53.470;9.832;2022-09-24T13:01:26;101167.78;;;18.65;86.31
8101;BME280;4093;53.470;9.832;2022-09-24T13:04:05;101165.50;;;18.16;88.70
8101;BME280;4093;53.470;9.832;2022-09-24T13:06:34;101163.00;;;17.71;89.31
8101;BME280;4093;53.470;9.832;2022-09-24T13:09:03;101169.50;;;17.61;91.16
8101;BME280;4093;53.470;9.832;2022-09-24T13:11:31;101181.72;;;18.04;88.76
8101;BME280;4093;53.470;9.832;2022-09-24T13:14:15;101176.25;;;18.10;88.71
8101;BME280;4093;53.470;9.832;2022-09-24T13:16:45;101163.50;;;17.58;90.00
8101;BME280;4093;53.470;9.832;2022-09-24T13:19:22;101169.72;;;17.78;89.99
8101;BME280;4093;53.470;9.832;2022-09-24T13:21:54;101166.16;;;17.57;91.03
8101;BME280;4093;53.470;9.832;2022-09-24T13:24:27;101174.25;;;17.95;89.26
8101;BME280;4093;53.470;9.832;2022-09-24T13:26:54;101188.34;;;18.54;88.53
8101;BME280;4093;53.470;9.832;2022-09-24T13:29:37;101173.38;;;18.37;88.22
8101;BME280;4093;53.470;9.832;2022-09-24T13:32:04;101152.94;;;17.84;88.73
8101;BME280;4093;53.470;9.832;2022-09-24T13:34:31;101164.50;;;17.98;88.67
8101;BME280;4093;53.470;9.832;2022-09-24T13:37:01;101162.50;;;17.61;89.76